createdAt,value
2023-05-12T00:01:27.438Z,4.50
2023-05-12T00:03:57.614Z,4.30
2023-05-12T00:06:28.052Z,4.40
2023-05-12T00:08:57.928Z,4.10
2023-05-12T00:11:28.020Z,4.40
2023-05-12T00:13:58.013Z,4.70
2023-05-12T00:16:28.393Z,4.30
2023-05-12T00:18:58.694Z,4.20
2023-05-12T00:21:28.785Z,4.10
2023-05-12T00:23:59.354Z,4.00
2023-05-12T00:26:49.976Z,4.40
2023-05-12T00:29:20.606Z,4.60
2023-05-12T00:31:50.882Z,4.40
2023-05-12T00:34:20.776Z,3.90
2023-05-12T00:36:50.745Z,4.30
2023-05-12T00:39:20.764Z,4.60
2023-05-12T00:41:56.979Z,4.40
2023-05-12T00:44:26.930Z,4.20
2023-05-12T00:46:57.012Z,5.10
2023-05-12T00:49:27.712Z,4.80
2023-05-12T00:51:58.502Z,4.50
2023-05-12T00:54:28.830Z,4.90
2023-05-12T00:56:59.272Z,4.20
2023-05-12T00:59:30.053Z,4.00
2023-05-12T01:02:00.765Z,4.30
2023-05-12T01:04:32.452Z,4.40
2023-05-12T01:07:09.661Z,4.20
2023-05-12T01:09:40.142Z,4.30
2023-05-12T01:12:10.922Z,4.20
2023-05-12T01:14:42.501Z,4.30
2023-05-12T01:17:15.507Z,4.20
2023-05-12T01:19:49.003Z,3.20
2023-05-12T01:24:53.072Z,4.80
2023-05-12T01:27:25.964Z,4.50
2023-05-12T01:29:59.602Z,4.40
2023-05-12T01:32:30.971Z,4.70
2023-05-12T01:35:01.612Z,4.60
2023-05-12T01:37:33.811Z,4.40
2023-05-12T01:40:08.312Z,4.50
2023-05-12T01:42:40.141Z,4.30
2023-05-12T01:45:12.312Z,4.50
2023-05-12T01:47:43.983Z,4.60
2023-05-12T01:50:13.933Z,4.30
2023-05-12T01:52:46.005Z,4.50
2023-05-12T01:55:17.940Z,4.60
2023-05-12T01:57:59.287Z,4.20
2023-05-12T02:00:29.473Z,4.30
2023-05-12T02:02:59.994Z,4.80
2023-05-12T02:05:31.071Z,4.70
2023-05-12T02:08:01.475Z,4.50
2023-05-12T02:10:31.906Z,4.40
2023-05-12T02:13:02.626Z,4.60
2023-05-12T02:15:32.991Z,4.50
2023-05-12T02:18:04.320Z,5.20
2023-05-12T02:20:34.249Z,4.90
2023-05-12T02:23:05.766Z,4.30
2023-05-12T02:25:35.993Z,4.80
2023-05-12T02:28:10.566Z,4.40
2023-05-12T02:30:44.929Z,4.70
2023-05-12T02:33:15.066Z,4.60
2023-05-12T02:35:45.367Z,3.80
2023-05-12T02:38:15.685Z,4.90
2023-05-12T02:40:46.602Z,4.00
2023-05-12T02:43:17.519Z,4.60
2023-05-12T02:45:47.775Z,5.20
2023-05-12T02:48:17.958Z,4.70
2023-05-12T02:50:47.828Z,4.90
2023-05-12T02:53:18.899Z,4.80
2023-05-12T02:55:49.659Z,4.60
2023-05-12T02:58:19.859Z,4.10
2023-05-12T03:00:59.881Z,4.90
2023-05-12T03:03:38.017Z,5.10
2023-05-12T03:06:09.101Z,4.90
2023-05-12T03:08:39.135Z,4.70
2023-05-12T03:11:09.004Z,5.70
2023-05-12T03:13:39.102Z,5.40
2023-05-12T03:16:10.659Z,4.70
2023-05-12T03:18:40.933Z,4.60
2023-05-12T03:21:11.060Z,4.50
2023-05-12T03:23:41.106Z,4.90
2023-05-12T03:26:11.276Z,4.90
2023-05-12T03:28:41.270Z,4.60
2023-05-12T03:31:11.507Z,4.90
2023-05-12T03:33:41.718Z,4.20
2023-05-12T03:36:11.979Z,4.60
2023-05-12T03:38:41.997Z,5.30
2023-05-12T03:41:12.069Z,4.60
2023-05-12T03:43:42.547Z,4.60
2023-05-12T03:46:12.698Z,4.50
2023-05-12T03:48:42.867Z,4.60
2023-05-12T03:51:12.973Z,5.30
2023-05-12T03:53:45.937Z,4.30
2023-05-12T03:56:16.731Z,5.20
2023-05-12T03:58:47.007Z,4.80
2023-05-12T04:01:18.855Z,4.50
2023-05-12T04:03:49.092Z,4.80
2023-05-12T04:06:19.002Z,5.10
2023-05-12T04:08:49.094Z,4.60
2023-05-12T04:11:18.876Z,5.40
2023-05-12T04:13:49.063Z,4.90
2023-05-12T04:16:18.991Z,5.50
2023-05-12T04:18:49.386Z,5.20
2023-05-12T04:21:19.388Z,4.60
2023-05-12T04:23:52.790Z,4.80
2023-05-12T04:26:23.199Z,4.50
2023-05-12T04:28:53.518Z,4.50
2023-05-12T04:31:23.652Z,4.90
2023-05-12T04:33:55.622Z,4.30
2023-05-12T04:36:27.350Z,5.30
2023-05-12T04:38:57.959Z,4.90
2023-05-12T04:41:28.129Z,4.50
2023-05-12T04:44:00.534Z,5.30
2023-05-12T04:46:34.517Z,5.00
2023-05-12T04:49:05.089Z,4.80
2023-05-12T04:51:41.742Z,4.70
2023-05-12T04:54:12.196Z,4.80
2023-05-12T04:56:42.661Z,5.10
2023-05-12T04:59:15.220Z,5.70
2023-05-12T05:01:45.993Z,5.30
2023-05-12T05:04:17.209Z,4.20
2023-05-12T05:06:47.270Z,4.80
2023-05-12T05:09:17.615Z,4.30
2023-05-12T05:11:48.355Z,4.20
2023-05-12T05:14:18.551Z,4.80
2023-05-12T05:16:48.764Z,4.60
2023-05-12T05:19:23.073Z,4.70
2023-05-12T05:22:00.793Z,4.90
2023-05-12T05:24:31.115Z,4.80
2023-05-12T05:27:01.737Z,4.40
2023-05-12T05:29:32.367Z,5.00
2023-05-12T05:32:02.510Z,4.40
2023-05-12T05:34:32.539Z,4.50
2023-05-12T05:37:03.274Z,3.20
2023-05-12T05:39:33.452Z,4.30
2023-05-12T05:42:03.696Z,4.60
2023-05-12T05:44:33.997Z,4.00
2023-05-12T05:47:04.223Z,4.20
2023-05-12T05:49:34.440Z,4.40
2023-05-12T05:52:05.055Z,4.20
2023-05-12T05:54:35.462Z,4.60
2023-05-12T05:57:06.059Z,4.30
2023-05-12T05:59:36.485Z,4.40
2023-05-12T06:02:07.725Z,4.50
2023-05-12T06:04:38.439Z,4.30
2023-05-12T06:07:08.599Z,4.30
2023-05-12T06:09:38.837Z,4.20
2023-05-12T06:12:10.449Z,4.30
2023-05-12T06:14:40.894Z,4.10
2023-05-12T06:17:57.436Z,4.40
2023-05-12T06:26:25.376Z,3.90
2023-05-12T06:28:55.966Z,3.30
2023-05-12T06:31:26.770Z,3.80
2023-05-12T06:33:56.705Z,3.90
2023-05-12T06:36:27.751Z,3.30
2023-05-12T06:38:58.151Z,3.40
2023-05-12T06:41:28.471Z,3.90
2023-05-12T06:44:00.009Z,3.00
2023-05-12T06:46:30.732Z,2.90
2023-05-12T06:49:00.974Z,3.20
2023-05-12T06:51:31.071Z,3.10
2023-05-12T06:54:01.279Z,3.80
2023-05-12T06:56:34.429Z,3.50
2023-05-12T06:59:04.868Z,3.30
2023-05-12T07:01:35.218Z,3.00
2023-05-12T07:04:06.041Z,3.20
2023-05-12T07:06:36.447Z,3.60
2023-05-12T07:09:06.520Z,2.80
2023-05-12T07:11:36.941Z,3.20
2023-05-12T07:14:07.177Z,3.30
2023-05-12T07:16:37.460Z,3.60
2023-05-12T07:19:08.774Z,3.60
2023-05-12T07:21:39.300Z,3.10
2023-05-12T07:24:09.937Z,2.90
2023-05-12T07:26:40.150Z,3.60
2023-05-12T07:29:13.414Z,3.50
2023-05-12T07:31:44.085Z,3.20
2023-05-12T07:34:14.796Z,2.90
2023-05-12T07:36:45.523Z,3.00
2023-05-12T07:39:19.122Z,2.80
2023-05-12T07:41:49.294Z,3.00
2023-05-12T07:44:19.193Z,3.20
2023-05-12T07:46:49.439Z,3.30
2023-05-12T07:49:20.051Z,3.30
2023-05-12T07:51:50.278Z,2.90
2023-05-12T07:54:20.985Z,3.60
2023-05-12T07:56:51.260Z,3.50
2023-05-12T07:59:21.431Z,3.50
2023-05-12T08:01:51.588Z,3.20
2023-05-12T08:04:22.416Z,3.60
2023-05-12T08:06:52.381Z,3.40
2023-05-12T08:09:22.333Z,3.50
2023-05-12T08:11:52.748Z,3.70
2023-05-12T08:14:25.262Z,3.40
2023-05-12T08:16:55.492Z,2.90
2023-05-12T08:19:25.625Z,3.10
2023-05-12T08:21:55.876Z,3.30
2023-05-12T08:24:26.214Z,3.10
2023-05-12T08:26:56.259Z,3.10
2023-05-12T08:29:27.638Z,3.70
2023-05-12T08:31:58.352Z,3.20
2023-05-12T08:34:28.621Z,3.00
2023-05-12T08:36:58.677Z,3.10
2023-05-12T08:39:30.682Z,3.50
2023-05-12T08:42:13.317Z,3.10
2023-05-12T08:44:44.272Z,3.80
2023-05-12T08:47:16.156Z,3.40
2023-05-12T08:49:51.081Z,3.70
2023-05-12T08:52:25.090Z,3.90
2023-05-12T08:55:03.279Z,3.10
2023-05-12T08:57:40.310Z,3.10
2023-05-12T09:00:31.787Z,3.10
2023-05-12T09:03:08.064Z,3.00
2023-05-12T09:05:40.942Z,5.80
2023-05-12T09:08:12.850Z,4.10
2023-05-12T09:10:44.059Z,3.40
2023-05-12T09:13:20.023Z,3.50
2023-05-12T09:15:53.510Z,2.90
2023-05-12T09:18:24.351Z,3.60
2023-05-12T09:20:54.342Z,3.30
2023-05-12T09:23:25.950Z,3.50
2023-05-12T09:26:01.838Z,3.60
2023-05-12T09:28:40.029Z,3.30
2023-05-12T09:31:24.054Z,3.30
2023-05-12T09:33:55.236Z,3.30
2023-05-12T09:36:26.315Z,3.50
2023-05-12T09:39:04.920Z,2.80
2023-05-12T09:41:37.758Z,2.90
2023-05-12T09:44:08.893Z,3.00
2023-05-12T09:46:40.529Z,3.10
2023-05-12T09:49:11.475Z,3.00
2023-05-12T09:51:41.910Z,2.70
2023-05-12T09:54:12.282Z,2.60
2023-05-12T09:56:42.757Z,2.20
2023-05-12T09:59:15.628Z,2.30
2023-05-12T10:01:45.777Z,2.60
2023-05-12T10:04:17.344Z,2.80
2023-05-12T10:06:47.822Z,2.50
2023-05-12T10:09:20.930Z,2.30
2023-05-12T10:14:24.658Z,2.00
2023-05-12T10:16:55.757Z,1.90
2023-05-12T10:19:27.085Z,2.10
2023-05-12T10:21:58.294Z,2.00
2023-05-12T10:24:28.908Z,2.20
2023-05-12T10:26:59.577Z,2.50
2023-05-12T10:29:32.689Z,2.20
2023-05-12T10:32:02.975Z,2.20
2023-05-12T10:34:35.496Z,2.10
2023-05-12T10:37:08.646Z,1.80
2023-05-12T10:39:46.729Z,1.90
2023-05-12T10:42:22.709Z,2.00
2023-05-12T10:44:54.928Z,2.20
2023-05-12T10:47:38.220Z,2.20
2023-05-12T10:50:13.279Z,1.80
2023-05-12T10:52:54.981Z,2.50
2023-05-12T10:55:34.260Z,2.10
2023-05-12T10:58:10.657Z,2.20
2023-05-12T11:00:50.405Z,2.00
2023-05-12T11:03:27.075Z,1.90
2023-05-12T11:06:06.948Z,2.00
2023-05-12T11:08:39.875Z,2.10
2023-05-12T11:11:18.302Z,1.80
2023-05-12T11:13:49.158Z,2.30
2023-05-12T11:16:20.947Z,2.20
2023-05-12T11:19:00.526Z,2.20
2023-05-12T11:21:32.117Z,2.40
2023-05-12T11:24:02.987Z,2.50
2023-05-12T11:26:34.467Z,2.20
2023-05-12T11:29:06.202Z,2.40
2023-05-12T11:31:36.326Z,2.80
2023-05-12T11:34:12.640Z,2.70
2023-05-12T11:36:45.058Z,2.00
2023-05-12T11:39:22.548Z,2.40
2023-05-12T11:42:02.156Z,2.40
2023-05-12T11:44:35.811Z,2.20
2023-05-12T11:47:14.513Z,2.40
2023-05-12T11:49:49.987Z,2.40
2023-05-12T11:52:21.917Z,2.60
2023-05-12T11:54:57.936Z,2.80
2023-05-12T11:57:29.001Z,2.00
2023-05-12T12:00:00.790Z,2.50
2023-05-12T12:02:32.257Z,2.30
2023-05-12T12:05:02.598Z,2.30
2023-05-12T12:07:34.021Z,2.40
2023-05-12T12:10:14.597Z,2.10
2023-05-12T12:12:45.531Z,2.50
2023-05-12T12:15:15.467Z,2.60
2023-05-12T12:17:45.621Z,2.30
2023-05-12T12:20:17.540Z,2.60
2023-05-12T12:22:48.326Z,2.30
2023-05-12T12:25:19.292Z,2.20
2023-05-12T12:27:49.571Z,2.60
2023-05-12T12:30:20.173Z,2.10
2023-05-12T12:32:50.495Z,2.50
2023-05-12T12:35:20.948Z,2.50
2023-05-12T12:37:51.890Z,2.00
2023-05-12T12:40:22.187Z,2.30
2023-05-12T12:42:53.057Z,2.60
2023-05-12T12:45:23.316Z,1.90
2023-05-12T12:47:54.992Z,1.70
2023-05-12T12:50:25.862Z,2.10
2023-05-12T12:52:57.329Z,1.80
2023-05-12T12:55:27.190Z,1.80
2023-05-12T12:57:57.674Z,2.00
2023-05-12T13:00:28.073Z,1.80
2023-05-12T13:02:59.377Z,1.80
2023-05-12T13:05:29.253Z,2.00
2023-05-12T13:07:59.451Z,1.80
2023-05-12T13:10:29.715Z,1.60
2023-05-12T13:13:00.411Z,2.30
2023-05-12T13:15:32.008Z,2.20
2023-05-12T13:18:02.115Z,2.00
2023-05-12T13:20:32.853Z,1.60
2023-05-12T13:23:03.377Z,1.70
2023-05-12T13:25:33.588Z,1.70
2023-05-12T13:28:03.632Z,1.80
2023-05-12T13:30:34.559Z,1.90
2023-05-12T13:33:06.040Z,1.80
2023-05-12T13:35:36.620Z,1.90
2023-05-12T13:38:06.799Z,1.60
2023-05-12T13:40:37.090Z,1.80
2023-05-12T13:43:08.168Z,3.00
2023-05-12T13:45:38.380Z,2.50
2023-05-12T13:48:08.827Z,2.10
2023-05-12T13:50:39.048Z,2.20
2023-05-12T13:53:09.366Z,1.80
2023-05-12T13:55:40.726Z,2.20
2023-05-12T13:58:11.237Z,1.70
2023-05-12T14:00:41.336Z,2.20
2023-05-12T14:03:11.497Z,2.00
2023-05-12T14:05:41.481Z,2.10
2023-05-12T14:08:11.744Z,1.90
2023-05-12T14:10:42.307Z,2.30
2023-05-12T14:13:13.534Z,2.00
2023-05-12T14:15:49.046Z,2.00
2023-05-12T14:18:20.520Z,1.90
2023-05-12T14:20:51.097Z,2.30
2023-05-12T14:23:22.037Z,2.10
2023-05-12T14:25:52.126Z,2.00
2023-05-12T14:28:23.089Z,2.10
2023-05-12T14:30:56.298Z,2.30
2023-05-12T14:33:26.862Z,2.10
2023-05-12T14:36:06.513Z,1.90
2023-05-12T14:38:37.762Z,2.60
2023-05-12T14:41:09.377Z,2.30
2023-05-12T14:43:40.190Z,2.50
2023-05-12T14:46:11.032Z,2.20
2023-05-12T14:48:41.344Z,2.90
2023-05-12T14:51:11.449Z,1.90
2023-05-12T14:53:41.930Z,2.40
2023-05-12T14:56:12.098Z,2.40
2023-05-12T14:58:42.471Z,3.40
2023-05-12T15:01:12.506Z,1.90
2023-05-12T15:03:43.291Z,2.50
2023-05-12T15:06:14.682Z,2.70
2023-05-12T15:11:15.159Z,2.20
2023-05-12T15:13:45.159Z,2.40
2023-05-12T15:16:15.464Z,2.50
2023-05-12T15:18:45.297Z,2.40
2023-05-12T15:21:15.496Z,2.10
2023-05-12T15:23:45.326Z,2.40
2023-05-12T15:28:51.358Z,1.90
2023-05-12T15:31:22.396Z,2.70
2023-05-12T15:33:52.441Z,2.00
2023-05-12T15:36:22.771Z,2.60
2023-05-12T15:38:52.936Z,2.40
2023-05-12T15:41:22.947Z,2.20
2023-05-12T15:43:52.998Z,2.40
2023-05-12T15:46:23.993Z,2.50
2023-05-12T15:48:54.181Z,3.00
2023-05-12T15:51:24.294Z,2.60
2023-05-12T15:53:54.410Z,2.70
2023-05-12T15:56:24.430Z,2.30
2023-05-12T15:58:55.921Z,3.00
2023-05-12T16:01:26.041Z,2.70
2023-05-12T16:03:56.195Z,2.60
2023-05-12T16:06:26.472Z,2.60
2023-05-12T16:08:56.507Z,3.40
2023-05-12T16:11:26.810Z,2.40
2023-05-12T16:13:57.441Z,2.50
2023-05-12T16:16:27.397Z,2.20
2023-05-12T16:18:57.921Z,2.50
2023-05-12T16:21:27.956Z,2.70
2023-05-12T16:23:58.033Z,2.50
2023-05-12T16:26:29.141Z,2.30
2023-05-12T16:28:59.097Z,2.40
2023-05-12T16:31:30.800Z,2.50
2023-05-12T16:34:02.848Z,3.40
2023-05-12T16:36:35.251Z,2.10
2023-05-12T16:39:05.490Z,2.50
2023-05-12T16:41:35.698Z,2.10
2023-05-12T16:44:06.250Z,2.30
2023-05-12T16:46:36.697Z,2.60
2023-05-12T16:49:07.865Z,1.80
2023-05-12T16:51:38.517Z,2.30
2023-05-12T16:54:08.896Z,2.40
2023-05-12T16:56:38.936Z,2.60
2023-05-12T16:59:08.984Z,2.40
2023-05-12T17:01:45.348Z,2.00
2023-05-12T17:04:15.569Z,2.10
2023-05-12T17:06:50.388Z,2.20
2023-05-12T17:09:41.731Z,2.30
2023-05-12T17:12:14.096Z,2.50
2023-05-12T17:14:45.943Z,2.00
2023-05-12T17:17:21.023Z,2.30
2023-05-12T17:19:52.962Z,2.00
2023-05-12T17:22:24.673Z,2.00
2023-05-12T17:24:54.824Z,2.30
2023-05-12T17:27:25.579Z,2.40
2023-05-12T17:30:00.229Z,2.10
2023-05-12T17:32:30.969Z,2.40
2023-05-12T17:35:01.262Z,2.20
2023-05-12T17:37:31.583Z,2.40
2023-05-12T17:40:02.039Z,2.20
2023-05-12T17:42:33.005Z,2.60
2023-05-12T17:45:03.700Z,2.60
2023-05-12T17:47:33.949Z,2.80
2023-05-12T17:50:04.656Z,2.40
2023-05-12T17:52:35.066Z,2.30
2023-05-12T17:55:06.698Z,2.20
2023-05-12T17:57:37.621Z,2.40
2023-05-12T18:00:10.368Z,2.60
2023-05-12T18:02:47.037Z,2.30
2023-05-12T18:05:17.307Z,2.60
2023-05-12T18:07:47.307Z,2.90
2023-05-12T18:10:18.936Z,2.90
2023-05-12T18:13:06.621Z,2.80
2023-05-12T18:15:36.788Z,3.00
2023-05-12T18:18:07.621Z,3.50
2023-05-12T18:20:37.936Z,2.90
2023-05-12T18:23:07.926Z,3.40
2023-05-12T18:25:41.578Z,2.80
2023-05-12T18:28:12.209Z,2.80
2023-05-12T18:30:42.426Z,3.00
2023-05-12T18:33:13.323Z,3.20
2023-05-12T18:35:43.591Z,2.80
2023-05-12T18:38:13.660Z,3.30
2023-05-12T18:40:44.455Z,3.00
2023-05-12T18:43:14.297Z,3.40
2023-05-12T18:45:44.439Z,3.30
2023-05-12T18:48:15.825Z,3.60
2023-05-12T18:50:46.671Z,3.10
2023-05-12T18:53:16.584Z,3.10
2023-05-12T18:55:47.857Z,3.00
2023-05-12T18:58:18.236Z,3.40
2023-05-12T19:00:48.947Z,2.70
2023-05-12T19:03:19.087Z,2.90
2023-05-12T19:05:49.714Z,2.80
2023-05-12T19:08:21.114Z,3.10
2023-05-12T19:10:51.575Z,3.50
2023-05-12T19:13:22.222Z,3.60
2023-05-12T19:15:52.564Z,3.20
2023-05-12T19:18:22.881Z,3.10
2023-05-12T19:20:53.060Z,3.80
2023-05-12T19:23:24.140Z,3.10
2023-05-12T19:25:54.565Z,3.70
2023-05-12T19:28:24.813Z,3.30
2023-05-12T19:30:56.880Z,3.30
2023-05-12T19:33:29.119Z,3.60
2023-05-12T19:35:59.538Z,3.70
2023-05-12T19:38:29.784Z,3.40
2023-05-12T19:41:00.845Z,3.50
2023-05-12T19:43:30.967Z,3.10
2023-05-12T19:46:01.793Z,2.80
2023-05-12T19:48:33.065Z,3.00
2023-05-12T19:51:04.057Z,3.20
2023-05-12T19:53:34.261Z,2.90
2023-05-12T19:56:04.861Z,3.30
2023-05-12T19:58:34.861Z,2.90
2023-05-12T20:01:25.111Z,3.60
2023-05-12T20:03:55.102Z,3.40
2023-05-12T20:06:25.191Z,3.10
2023-05-12T20:08:55.302Z,4.00
2023-05-12T20:11:25.301Z,3.20
2023-05-12T20:13:55.402Z,2.80
2023-05-12T20:16:25.583Z,3.30
2023-05-12T20:18:55.725Z,3.10
2023-05-12T20:21:25.700Z,3.30
2023-05-12T20:23:55.912Z,3.00
2023-05-12T20:26:26.039Z,3.90
2023-05-12T20:28:56.060Z,3.20
2023-05-12T20:31:26.665Z,2.80
2023-05-12T20:33:56.605Z,2.50
2023-05-12T20:36:26.805Z,3.00
2023-05-12T20:38:58.661Z,2.90
2023-05-12T20:41:29.588Z,3.90
2023-05-12T20:43:59.714Z,2.90
2023-05-12T20:46:30.730Z,3.00
2023-05-12T20:49:00.962Z,3.30
2023-05-12T20:51:32.040Z,2.90
2023-05-12T20:54:02.176Z,3.60
2023-05-12T20:56:32.596Z,2.80
2023-05-12T20:59:03.007Z,3.40
2023-05-12T21:01:33.664Z,3.80
2023-05-12T21:04:03.744Z,3.80
2023-05-12T21:06:38.919Z,3.10
2023-05-12T21:09:10.684Z,3.50
2023-05-12T21:11:41.341Z,3.10
2023-05-12T21:14:11.479Z,3.00
2023-05-12T21:16:41.935Z,3.50
2023-05-12T21:19:12.601Z,3.40
2023-05-12T21:21:43.021Z,4.00
2023-05-12T21:24:13.154Z,3.80
2023-05-12T21:26:43.218Z,3.70
2023-05-12T21:29:13.338Z,4.90
2023-05-12T21:31:43.491Z,3.80
2023-05-12T21:34:13.865Z,3.40
2023-05-12T21:36:44.056Z,3.10
2023-05-12T21:39:14.477Z,4.10
2023-05-12T21:41:44.518Z,3.70
2023-05-12T21:44:14.668Z,4.10
2023-05-12T21:46:45.094Z,3.50
2023-05-12T21:49:15.365Z,3.40
2023-05-12T21:51:45.598Z,3.30
2023-05-12T21:54:15.657Z,3.90
2023-05-12T21:56:45.947Z,3.70
2023-05-12T21:59:15.959Z,3.60
2023-05-12T22:01:46.334Z,3.50
2023-05-12T22:04:17.300Z,3.90
2023-05-12T22:06:48.861Z,3.60
2023-05-12T22:09:20.143Z,3.40
2023-05-12T22:11:51.344Z,3.50
2023-05-12T22:14:22.432Z,3.00
2023-05-12T22:16:53.620Z,4.00
2023-05-12T22:19:25.213Z,3.50
2023-05-12T22:21:56.703Z,4.60
2023-05-12T22:24:27.011Z,3.30
2023-05-12T22:26:57.162Z,3.70
2023-05-12T22:29:27.443Z,4.40
2023-05-12T22:31:57.498Z,3.60
2023-05-12T22:34:27.787Z,3.80
2023-05-12T22:36:57.734Z,3.40
2023-05-12T22:39:27.643Z,4.00
2023-05-12T22:41:57.763Z,3.80
2023-05-12T22:44:27.682Z,3.60
2023-05-12T22:46:58.212Z,4.60
2023-05-12T22:49:28.709Z,3.90
2023-05-12T22:51:59.936Z,3.70
2023-05-12T22:54:30.141Z,3.70
2023-05-12T22:57:00.377Z,3.70
2023-05-12T22:59:30.418Z,3.60
2023-05-12T23:02:01.178Z,3.90
2023-05-12T23:04:31.264Z,3.80
2023-05-12T23:07:01.323Z,4.50
2023-05-12T23:09:31.516Z,4.00
2023-05-12T23:12:02.062Z,4.20
2023-05-12T23:14:32.300Z,3.60
2023-05-12T23:17:02.767Z,3.70
2023-05-12T23:19:33.140Z,4.30
2023-05-12T23:22:03.487Z,4.30
2023-05-12T23:24:33.812Z,3.70
2023-05-12T23:27:04.160Z,4.10
2023-05-12T23:29:34.800Z,3.90
2023-05-12T23:32:05.544Z,3.80
2023-05-12T23:34:36.017Z,4.90
2023-05-12T23:37:06.501Z,5.20
2023-05-12T23:39:36.806Z,3.90
2023-05-12T23:42:07.640Z,4.20
2023-05-12T23:44:37.835Z,4.40
2023-05-12T23:47:08.589Z,4.20
2023-05-12T23:49:38.763Z,4.90
2023-05-12T23:52:09.399Z,4.90
2023-05-12T23:54:39.547Z,4.30
2023-05-12T23:57:09.540Z,4.20
2023-05-12T23:59:39.745Z,4.00
